sensor_id;sensor_type;location;lat;lon;timestamp;pressure;altitude;pressure_sealevel;temperature;humidity
70930;BME280;58588;48.102;19.682;2023-05-03T00:01:38;99778.84;;;14.48;100.00
70930;BME280;58588;48.102;19.682;2023-05-03T00:04:40;99785.81;;;14.23;100.00
70930;BME280;58588;48.102;19.682;2023-05-03T00:07:45;99800.22;;;14.23;100.00
70930;BME280;58588;48.102;19.682;2023-05-03T00:10:48;99795.03;;;14.35;100.00
70930;BME280;58588;48.102;19.682;2023-05-03T00:13:50;99768.06;;;14.20;100.00
70930;BME280;58588;48.102;19.682;2023-05-03T00:16:53;99764.34;;;14.28;100.00
70930;BME280;58588;48.102;19.682;2023-05-03T00:19:55;99767.94;;;14.35;100.00
70930;BME280;58588;48.102;19.682;2023-05-03T00:22:57;99763.75;;;14.39;100.00
70930;BME280;58588;48.102;19.682;2023-05-03T00:25:59;99782.59;;;14.47;100.00
70930;BME280;58588;48.102;19.682;2023-05-03T00:29:01;99772.38;;;14.56;100.00
70930;BME280;58588;48.102;19.682;2023-05-03T00:32:05;99763.97;;;14.44;100.00
70930;BME280;58588;48.102;19.682;2023-05-03T00:35:10;99755.75;;;14.11;100.00
70930;BME280;58588;48.102;19.682;2023-05-03T00:38:12;99753.84;;;14.11;100.00
70930;BME280;58588;48.102;19.682;2023-05-03T00:41:15;99758.25;;;14.19;100.00
70930;BME280;58588;48.102;19.682;2023-05-03T00:44:17;99770.44;;;14.36;100.00
70930;BME280;58588;48.102;19.682;2023-05-03T00:47:21;99786.94;;;14.41;100.00
70930;BME280;58588;48.102;19.682;2023-05-03T00:50:23;99797.94;;;14.33;100.00
70930;BME280;58588;48.102;19.682;2023-05-03T00:53:25;99790.00;;;14.32;100.00
70930;BME280;58588;48.102;19.682;2023-05-03T00:56:28;99787.97;;;14.34;100.00
70930;BME280;58588;48.102;19.682;2023-05-03T00:59:31;99791.28;;;14.29;100.00
70930;BME280;58588;48.102;19.682;2023-05-03T01:02:35;99791.47;;;14.28;100.00
70930;BME280;58588;48.102;19.682;2023-05-03T01:05:44;99788.31;;;14.24;100.00
70930;BME280;58588;48.102;19.682;2023-05-03T01:08:57;99792.06;;;14.16;100.00
70930;BME280;58588;48.102;19.682;2023-05-03T01:12:11;99792.16;;;14.02;100.00
70930;BME280;58588;48.102;19.682;2023-05-03T01:15:22;99782.38;;;14.01;100.00
70930;BME280;58588;48.102;19.682;2023-05-03T01:18:30;99788.63;;;14.01;100.00
70930;BME280;58588;48.102;19.682;2023-05-03T01:21:36;99783.44;;;14.06;100.00
70930;BME280;58588;48.102;19.682;2023-05-03T01:24:40;99794.25;;;14.00;100.00
70930;BME280;58588;48.102;19.682;2023-05-03T01:27:44;99793.22;;;14.01;100.00
70930;BME280;58588;48.102;19.682;2023-05-03T01:30:47;99792.59;;;13.99;100.00
70930;BME280;58588;48.102;19.682;2023-05-03T01:34:02;99805.50;;;13.97;100.00
70930;BME280;58588;48.102;19.682;2023-05-03T01:37:07;99810.31;;;14.01;100.00
70930;BME280;58588;48.102;19.682;2023-05-03T01:40:12;99811.88;;;13.82;100.00
70930;BME280;58588;48.102;19.682;2023-05-03T01:43:18;99812.59;;;13.98;100.00
70930;BME280;58588;48.102;19.682;2023-05-03T01:46:21;99823.66;;;14.03;100.00
70930;BME280;58588;48.102;19.682;2023-05-03T01:49:23;99813.47;;;14.05;100.00
70930;BME280;58588;48.102;19.682;2023-05-03T01:52:25;99818.91;;;14.05;100.00
70930;BME280;58588;48.102;19.682;2023-05-03T01:55:27;99827.03;;;14.05;100.00
70930;BME280;58588;48.102;19.682;2023-05-03T01:58:31;99832.41;;;13.98;100.00
70930;BME280;58588;48.102;19.682;2023-05-03T02:01:33;99832.50;;;13.83;100.00
70930;BME280;58588;48.102;19.682;2023-05-03T02:04:35;99821.16;;;13.66;100.00
70930;BME280;58588;48.102;19.682;2023-05-03T02:07:37;99825.56;;;13.68;100.00
70930;BME280;58588;48.102;19.682;2023-05-03T02:10:42;99822.88;;;13.74;100.00
70930;BME280;58588;48.102;19.682;2023-05-03T02:13:47;99818.09;;;13.76;100.00
70930;BME280;58588;48.102;19.682;2023-05-03T02:16:49;99820.84;;;13.83;100.00
70930;BME280;58588;48.102;19.682;2023-05-03T02:19:51;99815.47;;;13.89;100.00
70930;BME280;58588;48.102;19.682;2023-05-03T02:22:53;99821.56;;;13.98;100.00
70930;BME280;58588;48.102;19.682;2023-05-03T02:25:56;99826.25;;;13.83;100.00
70930;BME280;58588;48.102;19.682;2023-05-03T02:28:59;99853.59;;;13.60;100.00
70930;BME280;58588;48.102;19.682;2023-05-03T02:32:01;99869.69;;;13.40;100.00
70930;BME280;58588;48.102;19.682;2023-05-03T02:35:05;99889.31;;;13.21;100.00
70930;BME280;58588;48.102;19.682;2023-05-03T02:38:07;99866.75;;;13.35;100.00
70930;BME280;58588;48.102;19.682;2023-05-03T02:41:09;99849.50;;;13.43;100.00
70930;BME280;58588;48.102;19.682;2023-05-03T02:44:13;99858.97;;;13.53;100.00
70930;BME280;58588;48.102;19.682;2023-05-03T02:47:15;99854.00;;;13.57;100.00
70930;BME280;58588;48.102;19.682;2023-05-03T02:50:17;99853.97;;;13.50;100.00
70930;BME280;58588;48.102;19.682;2023-05-03T02:53:19;99859.22;;;13.58;100.00
70930;BME280;58588;48.102;19.682;2023-05-03T02:56:21;99867.84;;;13.69;100.00
70930;BME280;58588;48.102;19.682;2023-05-03T02:59:27;99866.38;;;13.66;100.00
70930;BME280;58588;48.102;19.682;2023-05-03T03:02:29;99867.19;;;13.66;100.00
70930;BME280;58588;48.102;19.682;2023-05-03T03:05:31;99866.41;;;13.73;100.00
70930;BME280;58588;48.102;19.682;2023-05-03T03:08:34;99865.53;;;13.37;100.00
70930;BME280;58588;48.102;19.682;2023-05-03T03:11:36;99863.13;;;13.28;100.00
70930;BME280;58588;48.102;19.682;2023-05-03T03:14:40;99861.25;;;13.28;100.00
70930;BME280;58588;48.102;19.682;2023-05-03T03:17:42;99871.75;;;13.17;100.00
70930;BME280;58588;48.102;19.682;2023-05-03T03:20:44;99871.25;;;13.28;100.00
70930;BME280;58588;48.102;19.682;2023-05-03T03:23:46;99885.84;;;13.27;100.00
70930;BME280;58588;48.102;19.682;2023-05-03T03:26:48;99877.72;;;13.27;100.00
70930;BME280;58588;48.102;19.682;2023-05-03T03:29:52;99886.47;;;13.29;100.00
70930;BME280;58588;48.102;19.682;2023-05-03T03:32:54;99890.34;;;13.41;100.00
70930;BME280;58588;48.102;19.682;2023-05-03T03:35:56;99894.34;;;13.45;100.00
70930;BME280;58588;48.102;19.682;2023-05-03T03:38:58;99893.31;;;13.46;100.00
70930;BME280;58588;48.102;19.682;2023-05-03T03:42:00;99897.47;;;13.49;100.00
70930;BME280;58588;48.102;19.682;2023-05-03T03:45:04;99889.59;;;13.54;100.00
70930;BME280;58588;48.102;19.682;2023-05-03T03:48:06;99904.38;;;13.51;100.00
70930;BME280;58588;48.102;19.682;2023-05-03T03:51:08;99905.53;;;13.63;100.00
70930;BME280;58588;48.102;19.682;2023-05-03T03:54:10;99895.91;;;13.61;100.00
70930;BME280;58588;48.102;19.682;2023-05-03T03:57:12;99903.22;;;13.60;100.00
70930;BME280;58588;48.102;19.682;2023-05-03T04:00:16;99894.06;;;13.40;100.00
70930;BME280;58588;48.102;19.682;2023-05-03T04:03:18;99884.28;;;13.39;100.00
70930;BME280;58588;48.102;19.682;2023-05-03T04:06:21;99885.25;;;13.31;100.00
70930;BME280;58588;48.102;19.682;2023-05-03T04:09:23;99890.41;;;13.26;100.00
70930;BME280;58588;48.102;19.682;2023-05-03T04:12:25;99881.88;;;13.29;100.00
70930;BME280;58588;48.102;19.682;2023-05-03T04:15:29;99888.53;;;13.27;100.00
70930;BME280;58588;48.102;19.682;2023-05-03T04:18:31;99883.25;;;13.40;100.00
70930;BME280;58588;48.102;19.682;2023-05-03T04:21:33;99867.25;;;13.24;100.00
70930;BME280;58588;48.102;19.682;2023-05-03T04:24:35;99869.75;;;13.25;100.00
70930;BME280;58588;48.102;19.682;2023-05-03T04:27:39;99856.31;;;13.32;100.00
70930;BME280;58588;48.102;19.682;2023-05-03T04:30:43;99843.16;;;13.29;100.00
70930;BME280;58588;48.102;19.682;2023-05-03T04:33:46;99845.91;;;13.35;100.00
70930;BME280;58588;48.102;19.682;2023-05-03T04:36:48;99843.09;;;13.22;100.00
70930;BME280;58588;48.102;19.682;2023-05-03T04:39:51;99838.31;;;13.24;100.00
70930;BME280;58588;48.102;19.682;2023-05-03T04:42:53;99832.31;;;13.29;100.00
70930;BME280;58588;48.102;19.682;2023-05-03T04:45:56;99830.38;;;13.44;100.00
70930;BME280;58588;48.102;19.682;2023-05-03T04:48:58;99817.91;;;13.50;100.00
70930;BME280;58588;48.102;19.682;2023-05-03T04:52:00;99815.63;;;13.53;100.00
70930;BME280;58588;48.102;19.682;2023-05-03T04:55:03;99819.19;;;13.54;100.00
70930;BME280;58588;48.102;19.682;2023-05-03T04:58:05;99825.56;;;13.68;100.00
70930;BME280;58588;48.102;19.682;2023-05-03T05:01:09;99829.22;;;13.88;100.00
70930;BME280;58588;48.102;19.682;2023-05-03T05:04:11;99835.00;;;14.13;100.00
70930;BME280;58588;48.102;19.682;2023-05-03T05:07:13;99821.41;;;14.06;100.00
70930;BME280;58588;48.102;19.682;2023-05-03T05:10:16;99831.09;;;14.22;100.00
70930;BME280;58588;48.102;19.682;2023-05-03T05:13:18;99830.47;;;14.27;100.00
70930;BME280;58588;48.102;19.682;2023-05-03T05:16:21;99834.09;;;14.40;100.00
70930;BME280;58588;48.102;19.682;2023-05-03T05:19:23;99837.91;;;14.53;100.00
70930;BME280;58588;48.102;19.682;2023-05-03T05:22:25;99846.75;;;14.75;100.00
70930;BME280;58588;48.102;19.682;2023-05-03T05:25:27;99841.31;;;14.81;100.00
70930;BME280;58588;48.102;19.682;2023-05-03T05:28:29;99839.72;;;14.93;100.00
70930;BME280;58588;48.102;19.682;2023-05-03T05:31:33;99866.66;;;15.02;100.00
70930;BME280;58588;48.102;19.682;2023-05-03T05:34:35;99866.25;;;15.05;100.00
70930;BME280;58588;48.102;19.682;2023-05-03T05:37:37;99864.53;;;14.90;100.00
70930;BME280;58588;48.102;19.682;2023-05-03T05:40:39;99863.47;;;14.78;100.00
70930;BME280;58588;48.102;19.682;2023-05-03T05:43:41;99868.53;;;14.88;100.00
70930;BME280;58588;48.102;19.682;2023-05-03T05:46:45;99873.53;;;14.91;100.00
70930;BME280;58588;48.102;19.682;2023-05-03T05:49:48;99874.97;;;14.87;100.00
70930;BME280;58588;48.102;19.682;2023-05-03T05:52:51;99872.06;;;14.82;100.00
70930;BME280;58588;48.102;19.682;2023-05-03T05:55:53;99878.75;;;14.92;100.00
70930;BME280;58588;48.102;19.682;2023-05-03T05:58:55;99890.81;;;14.70;100.00
70930;BME280;58588;48.102;19.682;2023-05-03T06:01:58;99886.25;;;14.84;100.00
70930;BME280;58588;48.102;19.682;2023-05-03T06:05:00;99890.63;;;14.85;100.00
70930;BME280;58588;48.102;19.682;2023-05-03T06:08:03;99902.97;;;14.87;100.00
70930;BME280;58588;48.102;19.682;2023-05-03T06:11:05;99903.81;;;14.94;100.00
70930;BME280;58588;48.102;19.682;2023-05-03T06:14:08;99909.66;;;14.98;100.00
70930;BME280;58588;48.102;19.682;2023-05-03T06:17:11;99909.28;;;15.01;100.00
70930;BME280;58588;48.102;19.682;2023-05-03T06:20:13;99912.38;;;14.98;100.00
70930;BME280;58588;48.102;19.682;2023-05-03T06:23:16;99904.50;;;15.16;100.00
70930;BME280;58588;48.102;19.682;2023-05-03T06:26:18;99914.75;;;15.27;100.00
70930;BME280;58588;48.102;19.682;2023-05-03T06:29:20;99915.22;;;15.44;100.00
70930;BME280;58588;48.102;19.682;2023-05-03T06:32:23;99909.63;;;15.66;100.00
70930;BME280;58588;48.102;19.682;2023-05-03T06:35:25;99914.41;;;15.77;100.00
70930;BME280;58588;48.102;19.682;2023-05-03T06:38:27;99905.38;;;15.50;100.00
70930;BME280;58588;48.102;19.682;2023-05-03T06:41:30;99906.44;;;15.49;100.00
70930;BME280;58588;48.102;19.682;2023-05-03T06:44:33;99903.53;;;15.64;100.00
70930;BME280;58588;48.102;19.682;2023-05-03T06:47:36;99894.34;;;15.85;100.00
70930;BME280;58588;48.102;19.682;2023-05-03T06:50:39;99897.66;;;16.06;100.00
70930;BME280;58588;48.102;19.682;2023-05-03T06:53:41;99896.19;;;16.11;100.00
70930;BME280;58588;48.102;19.682;2023-05-03T06:56:43;99904.13;;;16.19;100.00
70930;BME280;58588;48.102;19.682;2023-05-03T06:59:45;99902.16;;;16.52;100.00
70930;BME280;58588;48.102;19.682;2023-05-03T07:02:49;99895.41;;;16.75;100.00
70930;BME280;58588;48.102;19.682;2023-05-03T07:05:51;99894.19;;;16.57;100.00
70930;BME280;58588;48.102;19.682;2023-05-03T07:08:53;99900.22;;;16.73;100.00
70930;BME280;58588;48.102;19.682;2023-05-03T07:11:55;99902.22;;;16.91;100.00
70930;BME280;58588;48.102;19.682;2023-05-03T07:14:57;99909.75;;;16.95;100.00
70930;BME280;58588;48.102;19.682;2023-05-03T07:18:01;99916.63;;;17.04;100.00
70930;BME280;58588;48.102;19.682;2023-05-03T07:21:03;99914.47;;;17.45;100.00
70930;BME280;58588;48.102;19.682;2023-05-03T07:24:07;99914.34;;;17.39;100.00
70930;BME280;58588;48.102;19.682;2023-05-03T07:27:09;99905.69;;;17.43;100.00
70930;BME280;58588;48.102;19.682;2023-05-03T07:30:12;99909.22;;;17.50;100.00
70930;BME280;58588;48.102;19.682;2023-05-03T07:33:15;99905.78;;;17.61;100.00
70930;BME280;58588;48.102;19.682;2023-05-03T07:36:17;99905.97;;;17.91;100.00
70930;BME280;58588;48.102;19.682;2023-05-03T07:39:19;99900.63;;;18.03;100.00
70930;BME280;58588;48.102;19.682;2023-05-03T07:42:21;99907.91;;;18.09;100.00
70930;BME280;58588;48.102;19.682;2023-05-03T07:45:23;99903.22;;;18.34;100.00
70930;BME280;58588;48.102;19.682;2023-05-03T07:48:27;99901.16;;;18.73;100.00
70930;BME280;58588;48.102;19.682;2023-05-03T07:51:34;99906.28;;;18.63;100.00
70930;BME280;58588;48.102;19.682;2023-05-03T07:54:36;99907.13;;;18.82;100.00
70930;BME280;58588;48.102;19.682;2023-05-03T07:57:38;99904.22;;;19.25;100.00
70930;BME280;58588;48.102;19.682;2023-05-03T08:00:40;99906.66;;;19.03;100.00
70930;BME280;58588;48.102;19.682;2023-05-03T08:03:43;99910.22;;;19.04;100.00
70930;BME280;58588;48.102;19.682;2023-05-03T08:06:45;99914.59;;;19.05;100.00
70930;BME280;58588;48.102;19.682;2023-05-03T08:09:48;99912.31;;;18.71;100.00
70930;BME280;58588;48.102;19.682;2023-05-03T08:12:53;99911.81;;;18.56;100.00
70930;BME280;58588;48.102;19.682;2023-05-03T08:15:55;99914.22;;;18.46;100.00
70930;BME280;58588;48.102;19.682;2023-05-03T08:18:58;99909.16;;;18.50;100.00
70930;BME280;58588;48.102;19.682;2023-05-03T08:22:01;99908.13;;;18.69;100.00
70930;BME280;58588;48.102;19.682;2023-05-03T08:25:03;99906.78;;;18.78;100.00
70930;BME280;58588;48.102;19.682;2023-05-03T08:28:05;99908.34;;;18.86;100.00
70930;BME280;58588;48.102;19.682;2023-05-03T08:31:07;99911.38;;;19.26;100.00
70930;BME280;58588;48.102;19.682;2023-05-03T08:34:11;99912.75;;;19.47;100.00
70930;BME280;58588;48.102;19.682;2023-05-03T08:37:13;99904.66;;;19.52;96.71
70930;BME280;58588;48.102;19.682;2023-05-03T08:40:15;99896.69;;;19.39;96.77
70930;BME280;58588;48.102;19.682;2023-05-03T08:43:19;99907.47;;;19.64;96.78
70930;BME280;58588;48.102;19.682;2023-05-03T08:46:22;99911.16;;;19.69;92.97
70930;BME280;58588;48.102;19.682;2023-05-03T08:49:27;99909.63;;;20.09;95.42
70930;BME280;58588;48.102;19.682;2023-05-03T08:52:30;99920.25;;;20.40;84.13
70930;BME280;58588;48.102;19.682;2023-05-03T08:55:34;99918.22;;;20.47;86.08
70930;BME280;58588;48.102;19.682;2023-05-03T08:58:37;99910.94;;;20.29;84.05
70930;BME280;58588;48.102;19.682;2023-05-03T09:01:40;99914.41;;;20.60;89.32
70930;BME280;58588;48.102;19.682;2023-05-03T09:04:44;99913.44;;;20.43;81.48
70930;BME280;58588;48.102;19.682;2023-05-03T09:07:59;99919.16;;;20.41;81.18
70930;BME280;58588;48.102;19.682;2023-05-03T09:11:02;99915.44;;;20.71;75.50
70930;BME280;58588;48.102;19.682;2023-05-03T09:14:08;99917.25;;;20.65;79.56
70930;BME280;58588;48.102;19.682;2023-05-03T09:17:14;99922.19;;;21.32;75.03
70930;BME280;58588;48.102;19.682;2023-05-03T09:20:33;99918.31;;;20.64;75.63
70930;BME280;58588;48.102;19.682;2023-05-03T09:23:36;99920.47;;;20.50;78.98
70930;BME280;58588;48.102;19.682;2023-05-03T09:26:38;99919.41;;;21.03;78.61
70930;BME280;58588;48.102;19.682;2023-05-03T09:29:40;99912.03;;;21.32;79.21
70930;BME280;58588;48.102;19.682;2023-05-03T09:32:46;99915.50;;;20.47;72.57
70930;BME280;58588;48.102;19.682;2023-05-03T09:35:57;99916.69;;;20.28;75.87
70930;BME280;58588;48.102;19.682;2023-05-03T09:39:15;99917.84;;;20.32;73.90
70930;BME280;58588;48.102;19.682;2023-05-03T09:42:17;99916.66;;;20.63;74.69
70930;BME280;58588;48.102;19.682;2023-05-03T09:45:22;99916.59;;;20.87;75.92
70930;BME280;58588;48.102;19.682;2023-05-03T09:48:25;99919.78;;;20.95;72.52
70930;BME280;58588;48.102;19.682;2023-05-03T09:51:28;99919.16;;;21.05;72.77
70930;BME280;58588;48.102;19.682;2023-05-03T09:54:31;99925.63;;;21.27;72.24
70930;BME280;58588;48.102;19.682;2023-05-03T09:57:35;99922.19;;;21.20;74.67
70930;BME280;58588;48.102;19.682;2023-05-03T10:00:39;99921.47;;;21.25;72.01
70930;BME280;58588;48.102;19.682;2023-05-03T10:03:44;99915.94;;;21.08;67.52
70930;BME280;58588;48.102;19.682;2023-05-03T10:06:50;99926.00;;;21.31;nan
70930;BME280;58588;48.102;19.682;2023-05-03T10:09:54;99913.00;;;21.55;66.13
70930;BME280;58588;48.102;19.682;2023-05-03T10:12:58;99915.84;;;21.60;64.48
70930;BME280;58588;48.102;19.682;2023-05-03T10:16:04;99917.22;;;21.46;65.76
70930;BME280;58588;48.102;19.682;2023-05-03T10:19:12;99915.91;;;22.32;66.09
70930;BME280;58588;48.102;19.682;2023-05-03T10:22:16;99911.78;;;21.96;65.53
70930;BME280;58588;48.102;19.682;2023-05-03T10:25:18;99907.75;;;22.04;61.59
70930;BME280;58588;48.102;19.682;2023-05-03T10:28:21;99900.19;;;21.94;64.04
70930;BME280;58588;48.102;19.682;2023-05-03T10:31:45;99901.34;;;21.64;66.54
70930;BME280;58588;48.102;19.682;2023-05-03T10:34:55;99907.84;;;21.92;67.04
70930;BME280;58588;48.102;19.682;2023-05-03T10:38:12;99897.59;;;22.04;63.67
70930;BME280;58588;48.102;19.682;2023-05-03T10:41:23;99902.38;;;22.26;66.30
70930;BME280;58588;48.102;19.682;2023-05-03T10:44:26;99895.78;;;22.27;66.44
70930;BME280;58588;48.102;19.682;2023-05-03T10:47:29;99899.22;;;21.67;65.57
70930;BME280;58588;48.102;19.682;2023-05-03T10:50:31;99905.81;;;21.37;65.55
70930;BME280;58588;48.102;19.682;2023-05-03T10:53:37;99903.44;;;21.91;64.07
70930;BME280;58588;48.102;19.682;2023-05-03T10:56:50;99902.09;;;22.27;66.65
70930;BME280;58588;48.102;19.682;2023-05-03T10:59:53;99909.03;;;21.96;66.58
70930;BME280;58588;48.102;19.682;2023-05-03T11:03:11;99908.34;;;21.72;66.45
70930;BME280;58588;48.102;19.682;2023-05-03T11:06:28;99903.50;;;20.89;67.52
70930;BME280;58588;48.102;19.682;2023-05-03T11:09:33;99902.31;;;20.84;68.02
70930;BME280;58588;48.102;19.682;2023-05-03T11:12:35;99910.25;;;21.26;68.47
70930;BME280;58588;48.102;19.682;2023-05-03T11:15:37;99906.28;;;21.34;70.09
70930;BME280;58588;48.102;19.682;2023-05-03T11:18:40;99908.59;;;21.71;67.52
70930;BME280;58588;48.102;19.682;2023-05-03T11:21:42;99911.94;;;21.73;72.72
70930;BME280;58588;48.102;19.682;2023-05-03T11:24:46;99909.47;;;21.14;68.99
70930;BME280;58588;48.102;19.682;2023-05-03T11:27:48;99904.56;;;21.45;69.19
70930;BME280;58588;48.102;19.682;2023-05-03T11:30:50;99911.66;;;21.57;71.39
70930;BME280;58588;48.102;19.682;2023-05-03T11:33:52;99911.66;;;21.57;68.11
70930;BME280;58588;48.102;19.682;2023-05-03T11:36:56;99911.91;;;21.56;70.19
70930;BME280;58588;48.102;19.682;2023-05-03T11:40:00;99908.53;;;21.08;70.58
70930;BME280;58588;48.102;19.682;2023-05-03T11:43:04;99902.75;;;20.93;71.46
70930;BME280;58588;48.102;19.682;2023-05-03T11:46:07;99899.78;;;20.95;74.64
70930;BME280;58588;48.102;19.682;2023-05-03T11:49:16;99900.72;;;21.00;76.09
70930;BME280;58588;48.102;19.682;2023-05-03T11:52:20;99902.41;;;21.30;75.81
70930;BME280;58588;48.102;19.682;2023-05-03T11:55:25;99904.22;;;21.13;79.36
70930;BME280;58588;48.102;19.682;2023-05-03T11:58:27;99890.41;;;20.79;74.67
70930;BME280;58588;48.102;19.682;2023-05-03T12:01:29;99890.91;;;21.04;75.07
70930;BME280;58588;48.102;19.682;2023-05-03T12:04:31;99896.28;;;21.73;79.50
70930;BME280;58588;48.102;19.682;2023-05-03T12:07:33;99892.22;;;22.26;76.23
70930;BME280;58588;48.102;19.682;2023-05-03T12:10:37;99891.72;;;22.51;75.84
70930;BME280;58588;48.102;19.682;2023-05-03T12:13:39;99891.88;;;22.23;77.37
70930;BME280;58588;48.102;19.682;2023-05-03T12:16:45;99891.53;;;22.02;73.41
70930;BME280;58588;48.102;19.682;2023-05-03T12:19:49;99895.06;;;22.36;75.99
70930;BME280;58588;48.102;19.682;2023-05-03T12:22:53;99891.63;;;21.57;69.96
70930;BME280;58588;48.102;19.682;2023-05-03T12:25:57;99885.13;;;21.46;72.46
70930;BME280;58588;48.102;19.682;2023-05-03T12:28:59;99883.97;;;21.14;73.51
70930;BME280;58588;48.102;19.682;2023-05-03T12:32:01;99879.38;;;21.64;74.34
70930;BME280;58588;48.102;19.682;2023-05-03T12:35:04;99882.66;;;21.61;72.45
70930;BME280;58588;48.102;19.682;2023-05-03T12:38:06;99876.66;;;21.98;70.84
70930;BME280;58588;48.102;19.682;2023-05-03T12:41:10;99871.41;;;21.80;69.77
70930;BME280;58588;48.102;19.682;2023-05-03T12:44:12;99880.56;;;21.69;68.13
70930;BME280;58588;48.102;19.682;2023-05-03T12:47:14;99869.53;;;21.18;68.17
70930;BME280;58588;48.102;19.682;2023-05-03T12:50:16;99879.16;;;21.66;72.04
70930;BME280;58588;48.102;19.682;2023-05-03T12:53:19;99871.22;;;22.03;70.09
70930;BME280;58588;48.102;19.682;2023-05-03T12:56:23;99881.97;;;21.88;70.17
70930;BME280;58588;48.102;19.682;2023-05-03T12:59:25;99872.41;;;21.90;72.27
70930;BME280;58588;48.102;19.682;2023-05-03T13:02:27;99878.28;;;21.32;76.34
70930;BME280;58588;48.102;19.682;2023-05-03T13:05:30;99876.63;;;21.31;74.11
70930;BME280;58588;48.102;19.682;2023-05-03T13:08:32;99879.56;;;21.41;74.05
70930;BME280;58588;48.102;19.682;2023-05-03T13:11:36;99875.56;;;21.82;73.94
70930;BME280;58588;48.102;19.682;2023-05-03T13:14:38;99872.44;;;21.28;73.42
70930;BME280;58588;48.102;19.682;2023-05-03T13:17:40;99869.47;;;21.47;72.99
70930;BME280;58588;48.102;19.682;2023-05-03T13:20:42;99867.31;;;21.32;79.67
70930;BME280;58588;48.102;19.682;2023-05-03T13:23:44;99867.81;;;21.29;72.18
70930;BME280;58588;48.102;19.682;2023-05-03T13:26:48;99868.97;;;21.04;77.00
70930;BME280;58588;48.102;19.682;2023-05-03T13:29:50;99858.84;;;20.76;76.12
70930;BME280;58588;48.102;19.682;2023-05-03T13:32:52;99860.00;;;21.09;73.85
70930;BME280;58588;48.102;19.682;2023-05-03T13:35:54;99859.13;;;20.92;77.39
70930;BME280;58588;48.102;19.682;2023-05-03T13:38:56;99856.59;;;20.73;75.35
70930;BME280;58588;48.102;19.682;2023-05-03T13:42:00;99860.75;;;20.76;79.69
70930;BME280;58588;48.102;19.682;2023-05-03T13:45:03;99859.88;;;20.35;79.68
70930;BME280;58588;48.102;19.682;2023-05-03T13:48:06;99852.00;;;20.39;79.14
70930;BME280;58588;48.102;19.682;2023-05-03T13:51:08;99858.34;;;20.27;83.69
70930;BME280;58588;48.102;19.682;2023-05-03T13:54:11;99845.34;;;20.46;80.66
70930;BME280;58588;48.102;19.682;2023-05-03T13:57:25;99849.63;;;20.54;80.34
70930;BME280;58588;48.102;19.682;2023-05-03T14:00:27;99858.44;;;20.32;83.51
70930;BME280;58588;48.102;19.682;2023-05-03T14:03:31;99850.34;;;20.26;82.96
70930;BME280;58588;48.102;19.682;2023-05-03T14:06:33;99855.63;;;19.92;86.66
70930;BME280;58588;48.102;19.682;2023-05-03T14:09:35;99863.00;;;19.80;89.80
70930;BME280;58588;48.102;19.682;2023-05-03T14:12:40;99856.44;;;19.69;87.60
70930;BME280;58588;48.102;19.682;2023-05-03T14:15:43;99865.47;;;19.58;85.93
70930;BME280;58588;48.102;19.682;2023-05-03T14:18:45;99865.91;;;19.43;86.14
70930;BME280;58588;48.102;19.682;2023-05-03T14:21:47;99872.31;;;19.37;86.68
70930;BME280;58588;48.102;19.682;2023-05-03T14:24:50;99866.94;;;19.01;85.73
70930;BME280;58588;48.102;19.682;2023-05-03T14:27:54;99868.47;;;18.96;89.83
70930;BME280;58588;48.102;19.682;2023-05-03T14:30:56;99872.53;;;19.06;91.32
70930;BME280;58588;48.102;19.682;2023-05-03T14:33:58;99875.13;;;19.01;92.76
70930;BME280;58588;48.102;19.682;2023-05-03T14:37:00;99864.97;;;19.08;91.06
70930;BME280;58588;48.102;19.682;2023-05-03T14:40:03;99873.59;;;18.75;93.86
70930;BME280;58588;48.102;19.682;2023-05-03T14:43:07;99864.88;;;18.66;96.55
70930;BME280;58588;48.102;19.682;2023-05-03T14:46:09;99877.50;;;18.67;98.92
70930;BME280;58588;48.102;19.682;2023-05-03T14:49:12;99881.41;;;18.71;100.00
70930;BME280;58588;48.102;19.682;2023-05-03T14:52:17;99876.25;;;18.63;100.00
70930;BME280;58588;48.102;19.682;2023-05-03T14:55:19;99881.56;;;18.76;100.00
70930;BME280;58588;48.102;19.682;2023-05-03T14:58:22;99887.34;;;18.68;100.00
70930;BME280;58588;48.102;19.682;2023-05-03T15:01:24;99887.03;;;18.76;100.00
70930;BME280;58588;48.102;19.682;2023-05-03T15:04:26;99890.38;;;18.78;99.90
70930;BME280;58588;48.102;19.682;2023-05-03T15:07:28;99893.25;;;18.83;100.00
70930;BME280;58588;48.102;19.682;2023-05-03T15:10:31;99891.19;;;18.60;100.00
70930;BME280;58588;48.102;19.682;2023-05-03T15:13:35;99893.47;;;18.45;100.00
70930;BME280;58588;48.102;19.682;2023-05-03T15:16:37;99896.66;;;18.24;100.00
70930;BME280;58588;48.102;19.682;2023-05-03T15:19:39;99892.44;;;18.03;100.00
70930;BME280;58588;48.102;19.682;2023-05-03T15:22:41;99887.78;;;17.85;100.00
70930;BME280;58588;48.102;19.682;2023-05-03T15:25:43;99887.47;;;18.18;100.00
70930;BME280;58588;48.102;19.682;2023-05-03T15:28:47;99878.72;;;18.09;100.00
70930;BME280;58588;48.102;19.682;2023-05-03T15:31:49;99880.81;;;17.89;100.00
70930;BME280;58588;48.102;19.682;2023-05-03T15:34:51;99887.00;;;18.21;100.00
70930;BME280;58588;48.102;19.682;2023-05-03T15:37:53;99881.31;;;18.23;100.00
70930;BME280;58588;48.102;19.682;2023-05-03T15:40:55;99885.03;;;18.28;100.00
70930;BME280;58588;48.102;19.682;2023-05-03T15:43:59;99882.38;;;18.40;100.00
70930;BME280;58588;48.102;19.682;2023-05-03T15:47:04;99888.06;;;18.20;100.00
70930;BME280;58588;48.102;19.682;2023-05-03T15:50:07;99893.72;;;18.00;100.00